Time;durP1;ratioP1;P1;durP2;ratioP2;P2;SDS_P1;SDS_P2;PMS_P1;PMS_P2;Temp;Humidity;BMP_temperature;BMP_pressure;BME280_temperature;BME280_humidity;BME280_pressure;Samples;Min_cycle;Max_cycle;Signal;HPM_P1;HPM_P2
2023/03/24 00:00:30;;;;;;;23.80;9.73;;;;;;;;;;10497173;28;20482;-73
2023/03/24 00:06:00;;;;;;;14.60;7.22;;;;;;;;;;10505643;28;20028;-73
2023/03/24 00:11:21;;;;;;;19.55;8.30;;;;;;;;;;10514758;28;20032;-73
2023/03/24 00:16:42;;;;;;;20.48;8.48;;;;;;;;;;10507209;28;20035;-73
2023/03/24 00:22:04;;;;;;;23.58;9.20;;;;;;;;;;10515222;28;20389;-73
2023/03/24 00:27:29;;;;;;;32.50;11.55;;;;;;;;;;10513224;28;20028;-73
2023/03/24 00:32:50;;;;;;;22.35;9.13;;;;;;;;;;10503653;28;20060;-72
2023/03/24 00:38:11;;;;;;;24.98;9.80;;;;;;;;;;10491681;28;20390;-73
2023/03/24 00:43:33;;;;;;;20.17;9.02;;;;;;;;;;10504845;28;20059;-72
2023/03/24 00:49:01;;;;;;;22.95;8.73;;;;;;;;;;10506108;28;20058;-73
2023/03/24 00:54:26;;;;;;;15.27;7.32;;;;;;;;;;10508909;28;20036;-74
2023/03/24 00:59:48;;;;;;;17.50;8.18;;;;;;;;;;10488539;28;20032;-73
2023/03/24 01:05:09;;;;;;;13.63;7.07;;;;;;;;;;10490455;28;20033;-73
2023/03/24 01:10:31;;;;;;;14.82;7.22;;;;;;;;;;10479493;28;20032;-73
2023/03/24 01:15:52;;;;;;;13.30;7.07;;;;;;;;;;10484679;28;20032;-73
2023/03/24 01:21:13;;;;;;;16.08;7.72;;;;;;;;;;10489999;28;20024;-73
2023/03/24 01:26:34;;;;;;;17.90;8.65;;;;;;;;;;10468415;28;20340;-73
2023/03/24 01:31:55;;;;;;;18.13;8.00;;;;;;;;;;10475349;28;20404;-74
2023/03/24 01:37:16;;;;;;;17.52;8.20;;;;;;;;;;10484208;28;20495;-72
2023/03/24 01:42:38;;;;;;;12.88;7.35;;;;;;;;;;10459499;28;20039;-73
2023/03/24 01:47:59;;;;;;;18.52;8.02;;;;;;;;;;10475811;28;20041;-73
2023/03/24 01:53:20;;;;;;;16.90;7.28;;;;;;;;;;10484576;28;20044;-73
2023/03/24 01:58:44;;;;;;;19.10;8.57;;;;;;;;;;10495061;28;20036;-73
2023/03/24 02:04:06;;;;;;;14.45;7.15;;;;;;;;;;10512150;28;20379;-73
2023/03/24 02:09:26;;;;;;;17.15;8.43;;;;;;;;;;10517450;28;20035;-73
2023/03/24 02:14:48;;;;;;;12.23;6.78;;;;;;;;;;10517415;28;20032;-73
2023/03/24 02:20:10;;;;;;;16.80;8.25;;;;;;;;;;10517505;28;20036;-73
2023/03/24 02:25:31;;;;;;;13.15;7.32;;;;;;;;;;10530581;28;20025;-73
2023/03/24 02:30:55;;;;;;;15.93;8.20;;;;;;;;;;10520327;28;20039;-73
2023/03/24 02:36:28;;;;;;;25.15;8.73;;;;;;;;;;10515035;28;20040;-73
2023/03/24 02:41:52;;;;;;;17.25;8.85;;;;;;;;;;10513752;28;20549;-73
2023/03/24 02:47:25;;;;;;;22.23;8.98;;;;;;;;;;10529093;27;20070;-73
2023/03/24 02:53:12;;;;;;;13.10;7.40;;;;;;;;;;10513550;28;20032;-74
2023/03/24 02:58:36;;;;;;;14.98;8.00;;;;;;;;;;10465474;28;20048;-73
2023/03/24 03:04:04;;;;;;;18.30;8.07;;;;;;;;;;10478924;28;20036;-74
2023/03/24 03:09:26;;;;;;;21.70;9.48;;;;;;;;;;10475199;28;20040;-74
2023/03/24 03:14:53;;;;;;;17.63;8.00;;;;;;;;;;10478234;28;20063;-73
2023/03/24 03:20:18;;;;;;;16.45;7.97;;;;;;;;;;10476044;28;20047;-74
2023/03/24 03:25:45;;;;;;;17.08;7.10;;;;;;;;;;10476143;28;20046;-74
2023/03/24 03:31:08;;;;;;;14.25;6.70;;;;;;;;;;10474823;28;20033;-73
2023/03/24 03:36:32;;;;;;;16.02;6.68;;;;;;;;;;10471472;28;20495;-74
2023/03/24 03:41:53;;;;;;;13.73;6.07;;;;;;;;;;10468452;28;20049;-73
2023/03/24 03:47:14;;;;;;;19.73;6.93;;;;;;;;;;10471648;28;20040;-74
2023/03/24 03:52:38;;;;;;;20.20;7.53;;;;;;;;;;10455140;28;20050;-74
2023/03/24 03:58:00;;;;;;;18.13;7.75;;;;;;;;;;10500730;28;20053;-73
2023/03/24 04:03:31;;;;;;;24.38;8.63;;;;;;;;;;10490835;28;20436;-74
2023/03/24 04:09:17;;;;;;;16.55;7.47;;;;;;;;;;10503659;28;20291;-74
2023/03/24 04:14:56;;;;;;;18.10;7.10;;;;;;;;;;10485284;28;20044;-73
2023/03/24 04:20:37;;;;;;;18.00;8.05;;;;;;;;;;10494467;28;20493;-74
2023/03/24 04:26:00;;;;;;;14.48;7.82;;;;;;;;;;10494518;28;20393;-73
2023/03/24 04:31:25;;;;;;;15.73;7.93;;;;;;;;;;10490870;28;20111;-74
2023/03/24 04:36:53;;;;;;;21.95;8.68;;;;;;;;;;10501405;28;20062;-73
2023/03/24 04:42:18;;;;;;;17.45;7.35;;;;;;;;;;10496574;28;20458;-73
2023/03/24 04:47:42;;;;;;;17.92;7.35;;;;;;;;;;10501904;28;20051;-74
2023/03/24 04:53:04;;;;;;;17.10;7.60;;;;;;;;;;10478191;28;20040;-73
2023/03/24 04:58:25;;;;;;;23.80;8.23;;;;;;;;;;10529310;28;20060;-74
2023/03/24 05:03:46;;;;;;;22.02;8.73;;;;;;;;;;10534124;28;20043;-74
2023/03/24 05:09:07;;;;;;;15.00;7.63;;;;;;;;;;10535357;28;20032;-73
2023/03/24 05:14:28;;;;;;;19.70;7.03;;;;;;;;;;10538429;28;20085;-74
2023/03/24 05:19:49;;;;;;;21.30;7.93;;;;;;;;;;10537085;28;20020;-72
2023/03/24 05:25:10;;;;;;;22.85;7.63;;;;;;;;;;10524328;28;20039;-73
2023/03/24 05:30:31;;;;;;;22.15;8.00;;;;;;;;;;10536684;28;20044;-73
2023/03/24 05:35:52;;;;;;;22.42;8.82;;;;;;;;;;10533089;28;20044;-73
2023/03/24 05:41:13;;;;;;;22.75;8.38;;;;;;;;;;10534581;28;20383;-73
2023/03/24 05:46:33;;;;;;;24.77;9.18;;;;;;;;;;10517723;28;20044;-73
2023/03/24 05:51:55;;;;;;;23.17;9.57;;;;;;;;;;10529004;28;20036;-73
2023/03/24 05:57:16;;;;;;;27.23;10.23;;;;;;;;;;10492692;28;20040;-74
2023/03/24 06:02:38;;;;;;;22.95;8.88;;;;;;;;;;10490163;28;20052;-74
2023/03/24 06:08:00;;;;;;;17.98;8.40;;;;;;;;;;10503583;28;20044;-74
2023/03/24 06:13:21;;;;;;;27.23;9.73;;;;;;;;;;10500817;28;20490;-73
2023/03/24 06:18:41;;;;;;;24.65;7.72;;;;;;;;;;10492329;28;20025;-73
2023/03/24 06:24:03;;;;;;;21.98;7.47;;;;;;;;;;10496561;28;20040;-73
2023/03/24 06:29:24;;;;;;;16.38;6.82;;;;;;;;;;10501173;28;20040;-73
2023/03/24 06:34:45;;;;;;;10.98;6.03;;;;;;;;;;10518954;28;20566;-73
2023/03/24 06:40:09;;;;;;;22.83;8.95;;;;;;;;;;10493492;28;20055;-74
2023/03/24 06:45:29;;;;;;;18.38;7.75;;;;;;;;;;10494342;28;20025;-74
2023/03/24 06:50:51;;;;;;;18.13;6.82;;;;;;;;;;10479210;28;20051;-73
2023/03/24 06:56:19;;;;;;;22.73;7.72;;;;;;;;;;10485846;28;20584;-72
2023/03/24 07:01:41;;;;;;;24.00;7.53;;;;;;;;;;10495824;28;20037;-72
2023/03/24 07:07:02;;;;;;;17.88;6.38;;;;;;;;;;10503674;28;20398;-73
2023/03/24 07:12:23;;;;;;;18.83;6.93;;;;;;;;;;10487929;28;20036;-72
2023/03/24 07:17:44;;;;;;;13.10;6.75;;;;;;;;;;10500688;28;20462;-73
2023/03/24 07:23:05;;;;;;;20.02;6.38;;;;;;;;;;10491901;28;20040;-73
2023/03/24 07:28:26;;;;;;;19.02;6.40;;;;;;;;;;10493139;28;20047;-73
2023/03/24 07:33:47;;;;;;;31.70;8.50;;;;;;;;;;10507320;28;20035;-73
2023/03/24 07:39:08;;;;;;;23.80;6.60;;;;;;;;;;10497363;28;21405;-73
2023/03/24 07:44:29;;;;;;;17.30;5.88;;;;;;;;;;10503852;28;20103;-74
2023/03/24 07:49:50;;;;;;;15.60;5.15;;;;;;;;;;10501561;28;20044;-73
2023/03/24 07:55:11;;;;;;;21.67;6.63;;;;;;;;;;10501376;28;20047;-75
2023/03/24 08:00:32;;;;;;;27.75;8.15;;;;;;;;;;10496615;28;20040;-77
2023/03/24 08:05:54;;;;;;;20.15;5.28;;;;;;;;;;10518734;28;20040;-79
2023/03/24 08:11:15;;;;;;;18.73;5.57;;;;;;;;;;10531698;28;20047;-76
2023/03/24 08:16:37;;;;;;;20.70;6.10;;;;;;;;;;10519890;28;20040;-77
2023/03/24 08:21:58;;;;;;;20.05;6.35;;;;;;;;;;10509119;28;20031;-76
2023/03/24 08:27:19;;;;;;;18.15;6.18;;;;;;;;;;10523381;28;20106;-76
2023/03/24 08:32:44;;;;;;;15.25;4.70;;;;;;;;;;10511058;28;20389;-82
2023/03/24 08:38:08;;;;;;;21.17;6.15;;;;;;;;;;10534732;28;20382;-76
2023/03/24 08:43:30;;;;;;;15.95;5.88;;;;;;;;;;10533676;28;20047;-79
2023/03/24 08:48:50;;;;;;;17.30;5.93;;;;;;;;;;10530840;28;20539;-74
2023/03/24 08:54:12;;;;;;;15.50;5.97;;;;;;;;;;10520199;28;20043;-76
2023/03/24 08:59:33;;;;;;;13.57;5.50;;;;;;;;;;10492401;28;20037;-76
2023/03/24 09:04:54;;;;;;;11.80;5.50;;;;;;;;;;10465353;28;20044;-75
2023/03/24 09:10:16;;;;;;;16.60;5.85;;;;;;;;;;10475973;28;20041;-76
2023/03/24 09:15:36;;;;;;;13.57;5.70;;;;;;;;;;10478224;28;20049;-79
2023/03/24 09:20:58;;;;;;;17.58;6.45;;;;;;;;;;10490840;28;20517;-76
2023/03/24 09:26:18;;;;;;;16.33;6.28;;;;;;;;;;10475771;28;20036;-76
2023/03/24 09:31:39;;;;;;;16.00;7.18;;;;;;;;;;10492071;28;20035;-73
2023/03/24 09:37:00;;;;;;;13.15;5.45;;;;;;;;;;10485308;28;20048;-74
2023/03/24 09:42:22;;;;;;;16.08;6.65;;;;;;;;;;10479175;28;20033;-76
2023/03/24 09:47:47;;;;;;;14.02;5.97;;;;;;;;;;10481667;28;20074;-79
2023/03/24 09:53:20;;;;;;;19.30;7.93;;;;;;;;;;10474297;28;20035;-83
2023/03/24 09:58:42;;;;;;;24.00;7.78;;;;;;;;;;10487275;28;20048;-79
2023/03/24 10:04:03;;;;;;;16.42;6.90;;;;;;;;;;10485573;28;20043;-81
2023/03/24 10:09:29;;;;;;;16.35;6.32;;;;;;;;;;10476199;28;20052;-80
2023/03/24 10:14:56;;;;;;;16.33;7.18;;;;;;;;;;10475519;28;20123;-78
2023/03/24 10:20:17;;;;;;;21.80;7.68;;;;;;;;;;10478717;28;20037;-77
2023/03/24 10:25:43;;;;;;;17.10;6.38;;;;;;;;;;10495304;28;20040;-78
2023/03/24 10:31:09;;;;;;;16.23;6.25;;;;;;;;;;10489479;28;20032;-77
2023/03/24 10:36:30;;;;;;;13.68;5.95;;;;;;;;;;10487122;28;20370;-76
2023/03/24 10:41:52;;;;;;;12.25;5.63;;;;;;;;;;10473158;28;20040;-74
2023/03/24 10:47:14;;;;;;;21.17;6.47;;;;;;;;;;10474110;28;20036;-75
2023/03/24 10:52:44;;;;;;;14.43;6.25;;;;;;;;;;10476416;28;20029;-79
2023/03/24 10:58:12;;;;;;;15.23;5.60;;;;;;;;;;10516967;28;20055;-79
2023/03/24 11:03:35;;;;;;;19.33;6.00;;;;;;;;;;10534634;28;20039;-76
2023/03/24 11:09:14;;;;;;;13.35;4.97;;;;;;;;;;10536742;28;20412;-79
2023/03/24 11:14:42;;;;;;;13.73;5.32;;;;;;;;;;10538958;28;20043;-79
2023/03/24 11:20:14;;;;;;;11.48;5.10;;;;;;;;;;10537590;28;20607;-77
2023/03/24 11:25:36;;;;;;;13.85;4.78;;;;;;;;;;10532872;28;20047;-77
2023/03/24 11:31:04;;;;;;;28.77;8.65;;;;;;;;;;10525841;28;20048;-77
2023/03/24 11:36:29;;;;;;;10.50;5.00;;;;;;;;;;10523596;28;20500;-77
2023/03/24 11:41:50;;;;;;;12.82;5.78;;;;;;;;;;10538594;28;20020;-77
2023/03/24 11:47:20;;;;;;;15.15;6.38;;;;;;;;;;10538947;28;20028;-77
2023/03/24 11:52:48;;;;;;;21.17;7.00;;;;;;;;;;10520189;28;20032;-77
2023/03/24 11:58:26;;;;;;;13.90;4.97;;;;;;;;;;10536693;28;20040;-73
2023/03/24 12:04:02;;;;;;;14.10;5.97;;;;;;;;;;10533389;28;20032;-80
2023/03/24 12:09:36;;;;;;;10.63;5.25;;;;;;;;;;10536159;28;20036;-80
2023/03/24 12:15:09;;;;;;;14.95;5.90;;;;;;;;;;10533569;28;20047;-76
2023/03/24 12:20:52;;;;;;;12.32;5.22;;;;;;;;;;10531355;28;20043;-76
2023/03/24 12:26:22;;;;;;;8.95;4.95;;;;;;;;;;10514218;28;20036;-76
2023/03/24 12:32:05;;;;;;;9.00;5.90;;;;;;;;;;10521031;28;20396;-76
2023/03/24 12:37:26;;;;;;;8.60;5.10;;;;;;;;;;10523852;28;20047;-78
2023/03/24 12:42:51;;;;;;;8.93;5.18;;;;;;;;;;10535688;28;20039;-78
2023/03/24 12:48:25;;;;;;;12.25;5.93;;;;;;;;;;10518294;28;20040;-79
2023/03/24 12:53:54;;;;;;;8.13;5.47;;;;;;;;;;10526898;28;20032;-77
2023/03/24 12:59:19;;;;;;;9.95;5.60;;;;;;;;;;10533820;28;20028;-75
2023/03/24 13:04:41;;;;;;;8.52;4.95;;;;;;;;;;10535299;28;20051;-79
2023/03/24 13:10:06;;;;;;;12.55;5.68;;;;;;;;;;10529874;28;20028;-77
2023/03/24 13:15:37;;;;;;;9.27;4.68;;;;;;;;;;10532131;28;20401;-72
2023/03/24 13:20:58;;;;;;;7.95;4.45;;;;;;;;;;10533989;28;20044;-72
2023/03/24 13:26:34;;;;;;;10.50;4.50;;;;;;;;;;10534296;28;20039;-74
2023/03/24 13:32:04;;;;;;;5.55;4.10;;;;;;;;;;10532909;28;20040;-74
2023/03/24 13:37:33;;;;;;;8.50;4.63;;;;;;;;;;10507752;28;20512;-73
2023/03/24 13:42:55;;;;;;;13.38;5.20;;;;;;;;;;10497544;28;20516;-74
2023/03/24 13:48:16;;;;;;;10.25;4.55;;;;;;;;;;10516455;28;20515;-74
2023/03/24 13:53:42;;;;;;;9.65;5.68;;;;;;;;;;10533512;28;20040;-74
2023/03/24 13:59:22;;;;;;;8.65;5.05;;;;;;;;;;10494085;28;20040;-74
2023/03/24 14:05:01;;;;;;;11.00;4.88;;;;;;;;;;10487326;28;20390;-74
2023/03/24 14:10:22;;;;;;;9.00;4.65;;;;;;;;;;10500062;28;20425;-74
2023/03/24 14:15:50;;;;;;;13.00;5.68;;;;;;;;;;10494287;28;20044;-72
2023/03/24 14:21:11;;;;;;;6.97;4.68;;;;;;;;;;10482427;28;20382;-73
2023/03/24 14:26:33;;;;;;;4.78;3.95;;;;;;;;;;10488532;28;20435;-74
2023/03/24 14:31:59;;;;;;;7.68;4.78;;;;;;;;;;10500341;28;20506;-73
2023/03/24 14:37:21;;;;;;;7.88;4.93;;;;;;;;;;10515214;28;20031;-72
2023/03/24 14:42:41;;;;;;;7.13;4.90;;;;;;;;;;10482519;28;20040;-73
2023/03/24 14:48:04;;;;;;;7.80;5.40;;;;;;;;;;10499245;28;20583;-73
2023/03/24 14:53:25;;;;;;;13.02;6.55;;;;;;;;;;10488052;28;20456;-72
2023/03/24 14:58:49;;;;;;;11.07;5.25;;;;;;;;;;10497924;28;20048;-73
2023/03/24 15:04:11;;;;;;;12.40;4.90;;;;;;;;;;10525211;28;20040;-72
2023/03/24 15:09:35;;;;;;;9.68;5.72;;;;;;;;;;10489224;28;20025;-72
2023/03/24 15:14:56;;;;;;;8.82;4.95;;;;;;;;;;10494518;28;20138;-73
2023/03/24 15:20:21;;;;;;;9.85;5.47;;;;;;;;;;10527100;28;20040;-73
2023/03/24 15:25:42;;;;;;;14.20;6.10;;;;;;;;;;10495236;28;20039;-73
2023/03/24 15:31:03;;;;;;;10.48;5.30;;;;;;;;;;10496862;28;20040;-73
2023/03/24 15:36:24;;;;;;;21.77;7.72;;;;;;;;;;10496177;28;20033;-73
2023/03/24 15:41:48;;;;;;;14.15;5.18;;;;;;;;;;10489589;28;20029;-73
2023/03/24 15:47:15;;;;;;;8.63;5.07;;;;;;;;;;10493227;28;20033;-73
2023/03/24 15:52:37;;;;;;;7.55;4.55;;;;;;;;;;10479330;28;20467;-73
2023/03/24 15:58:00;;;;;;;8.82;4.25;;;;;;;;;;10526934;28;20569;-73
2023/03/24 16:03:25;;;;;;;13.52;4.63;;;;;;;;;;10534161;28;20432;-73
2023/03/24 16:08:48;;;;;;;8.50;4.63;;;;;;;;;;10539238;28;20040;-73
2023/03/24 16:14:31;;;;;;;9.95;4.50;;;;;;;;;;10524280;28;20399;-73
2023/03/24 16:19:52;;;;;;;12.18;5.10;;;;;;;;;;10518306;28;20036;-73
2023/03/24 16:25:13;;;;;;;14.20;5.22;;;;;;;;;;10504045;28;20058;-73
2023/03/24 16:30:37;;;;;;;11.70;5.60;;;;;;;;;;10512674;28;20028;-73
2023/03/24 16:35:59;;;;;;;6.05;4.13;;;;;;;;;;10533871;28;20035;-73
2023/03/24 16:41:20;;;;;;;17.40;5.88;;;;;;;;;;10523969;28;20028;-73
2023/03/24 16:46:42;;;;;;;13.23;5.50;;;;;;;;;;10521173;28;20031;-73
2023/03/24 16:52:03;;;;;;;16.88;6.07;;;;;;;;;;10517883;28;20043;-73
2023/03/24 16:57:24;;;;;;;15.65;5.72;;;;;;;;;;10498303;28;20052;-73
2023/03/24 17:02:47;;;;;;;14.02;5.88;;;;;;;;;;10489812;28;20032;-73
2023/03/24 17:08:09;;;;;;;8.43;4.60;;;;;;;;;;10489881;28;20032;-73
2023/03/24 17:13:30;;;;;;;10.55;4.88;;;;;;;;;;10487862;28;20037;-73
2023/03/24 17:18:51;;;;;;;14.38;6.00;;;;;;;;;;10489469;28;20032;-72
2023/03/24 17:24:12;;;;;;;17.55;6.32;;;;;;;;;;10477860;28;20489;-70
2023/03/24 17:29:33;;;;;;;14.93;5.55;;;;;;;;;;10486375;28;20033;-71
2023/03/24 17:34:54;;;;;;;16.38;6.38;;;;;;;;;;10475695;28;20025;-71
2023/03/24 17:40:16;;;;;;;17.95;6.28;;;;;;;;;;10474305;28;20047;-71
2023/03/24 17:45:38;;;;;;;19.95;7.43;;;;;;;;;;10474905;28;20040;-70
2023/03/24 17:50:59;;;;;;;20.23;7.20;;;;;;;;;;10472537;28;20078;-71
2023/03/24 17:56:20;;;;;;;15.95;6.18;;;;;;;;;;10500818;28;20455;-71
2023/03/24 18:01:41;;;;;;;18.10;5.53;;;;;;;;;;10524378;28;20067;-71
2023/03/24 18:07:02;;;;;;;21.65;7.90;;;;;;;;;;10515407;28;20071;-71
2023/03/24 18:12:23;;;;;;;16.25;6.82;;;;;;;;;;10514188;28;20059;-70
2023/03/24 18:17:44;;;;;;;24.90;8.68;;;;;;;;;;10515544;28;20098;-71
2023/03/24 18:23:05;;;;;;;8.50;4.88;;;;;;;;;;10523359;28;20349;-71
2023/03/24 18:28:27;;;;;;;11.63;5.85;;;;;;;;;;10531338;28;20032;-71
2023/03/24 18:33:49;;;;;;;11.63;5.72;;;;;;;;;;10519664;28;20142;-71
2023/03/24 18:39:09;;;;;;;11.68;5.32;;;;;;;;;;10531557;28;20043;-71
2023/03/24 18:44:30;;;;;;;11.88;5.38;;;;;;;;;;10529578;28;20039;-71
2023/03/24 18:49:51;;;;;;;11.55;5.57;;;;;;;;;;10545375;28;20028;-71
2023/03/24 18:55:14;;;;;;;11.02;5.75;;;;;;;;;;10523082;28;20048;-71
2023/03/24 19:00:35;;;;;;;12.07;5.20;;;;;;;;;;10499469;28;20036;-71
2023/03/24 19:05:59;;;;;;;12.13;6.35;;;;;;;;;;10474346;28;20032;-71
2023/03/24 19:11:20;;;;;;;11.73;6.32;;;;;;;;;;10483925;28;20425;-70
2023/03/24 19:16:41;;;;;;;11.55;5.75;;;;;;;;;;10483419;28;20044;-71
2023/03/24 19:22:02;;;;;;;11.57;6.97;;;;;;;;;;10482102;28;20048;-71
2023/03/24 19:27:23;;;;;;;15.02;5.97;;;;;;;;;;10481654;28;20490;-71
2023/03/24 19:32:45;;;;;;;8.70;5.50;;;;;;;;;;10496613;28;20040;-71
2023/03/24 19:38:06;;;;;;;14.98;6.68;;;;;;;;;;10473833;28;20035;-71
2023/03/24 19:43:27;;;;;;;12.23;5.38;;;;;;;;;;10489778;28;20075;-71
2023/03/24 19:48:48;;;;;;;10.38;5.82;;;;;;;;;;10478829;28;20036;-70
2023/03/24 19:54:09;;;;;;;11.60;5.80;;;;;;;;;;10501093;28;20071;-70
2023/03/24 19:59:30;;;;;;;9.15;6.22;;;;;;;;;;10540587;28;20047;-71
2023/03/24 20:04:53;;;;;;;11.23;6.47;;;;;;;;;;10518228;28;20039;-71
2023/03/24 20:10:14;;;;;;;10.63;6.20;;;;;;;;;;10528026;28;20028;-71
2023/03/24 20:15:35;;;;;;;10.02;5.82;;;;;;;;;;10531664;28;20048;-71
2023/03/24 20:20:58;;;;;;;10.02;5.82;;;;;;;;;;10533439;28;20040;-71
2023/03/24 20:26:19;;;;;;;17.00;7.15;;;;;;;;;;10524017;28;20061;-71
2023/03/24 20:31:41;;;;;;;10.55;5.20;;;;;;;;;;10505695;28;20032;-71
2023/03/24 20:37:03;;;;;;;10.77;5.78;;;;;;;;;;10527801;28;20036;-71
2023/03/24 20:42:26;;;;;;;11.43;5.63;;;;;;;;;;10517544;28;20032;-71
2023/03/24 20:47:47;;;;;;;15.43;6.90;;;;;;;;;;10525173;28;20040;-71
2023/03/24 20:53:08;;;;;;;11.73;6.15;;;;;;;;;;10522202;28;20036;-71
2023/03/24 20:58:29;;;;;;;25.23;11.30;;;;;;;;;;10537198;27;20043;-71
2023/03/24 21:03:51;;;;;;;19.45;8.63;;;;;;;;;;10513769;28;20055;-71
2023/03/24 21:09:12;;;;;;;14.95;7.70;;;;;;;;;;10519565;28;20032;-71
2023/03/24 21:14:33;;;;;;;18.73;8.18;;;;;;;;;;10519411;28;20040;-70
2023/03/24 21:19:53;;;;;;;14.40;6.95;;;;;;;;;;10517483;28;20023;-71
2023/03/24 21:25:14;;;;;;;11.38;6.20;;;;;;;;;;10521588;28;20450;-71
2023/03/24 21:30:35;;;;;;;13.88;7.05;;;;;;;;;;10520301;28;20047;-71
2023/03/24 21:35:56;;;;;;;14.85;7.18;;;;;;;;;;10522438;28;20035;-71
2023/03/24 21:41:18;;;;;;;11.07;5.97;;;;;;;;;;10515593;28;20032;-71
2023/03/24 21:46:39;;;;;;;16.00;6.82;;;;;;;;;;10522375;28;20107;-70
2023/03/24 21:51:59;;;;;;;18.95;7.22;;;;;;;;;;10514241;28;20035;-71
2023/03/24 21:57:20;;;;;;;9.40;5.78;;;;;;;;;;10510807;28;20067;-71
2023/03/24 22:02:46;;;;;;;13.77;7.10;;;;;;;;;;10496963;28;20028;-71
2023/03/24 22:08:07;;;;;;;12.90;6.45;;;;;;;;;;10508029;28;20448;-71
2023/03/24 22:13:28;;;;;;;16.65;7.03;;;;;;;;;;10521850;27;20043;-71
2023/03/24 22:18:51;;;;;;;20.65;7.65;;;;;;;;;;10537792;28;20032;-71
2023/03/24 22:24:12;;;;;;;18.05;7.93;;;;;;;;;;10500285;28;20085;-71
2023/03/24 22:29:33;;;;;;;18.98;8.23;;;;;;;;;;10510112;28;20512;-71
2023/03/24 22:34:54;;;;;;;16.60;7.38;;;;;;;;;;10508967;28;20032;-71
2023/03/24 22:40:15;;;;;;;14.40;7.53;;;;;;;;;;10504610;28;20032;-71
2023/03/24 22:45:36;;;;;;;14.20;6.47;;;;;;;;;;10501280;28;20044;-71
2023/03/24 22:50:57;;;;;;;18.52;7.38;;;;;;;;;;10500552;28;20032;-71
2023/03/24 22:56:18;;;;;;;18.65;7.28;;;;;;;;;;10486611;28;20098;-73
2023/03/24 23:01:39;;;;;;;12.73;7.05;;;;;;;;;;10506151;28;20063;-73
2023/03/24 23:07:00;;;;;;;8.55;5.70;;;;;;;;;;10510186;28;20032;-73
2023/03/24 23:12:21;;;;;;;15.38;6.50;;;;;;;;;;10540748;27;20077;-74
2023/03/24 23:17:42;;;;;;;9.73;5.65;;;;;;;;;;10509957;28;20037;-73
2023/03/24 23:23:04;;;;;;;14.95;7.15;;;;;;;;;;10504109;28;20489;-73
2023/03/24 23:28:25;;;;;;;13.65;6.15;;;;;;;;;;10512614;28;20039;-73
2023/03/24 23:33:46;;;;;;;14.07;6.40;;;;;;;;;;10481618;28;20415;-73
2023/03/24 23:39:07;;;;;;;8.65;5.80;;;;;;;;;;10522094;28;20028;-74
2023/03/24 23:44:28;;;;;;;14.00;6.38;;;;;;;;;;10502274;28;20485;-73
2023/03/24 23:49:49;;;;;;;10.73;5.93;;;;;;;;;;10504068;28;20069;-74
2023/03/24 23:55:11;;;;;;;12.13;6.43;;;;;;;;;;10504152;28;20053;-73
